sensor_id;sensor_type;location;lat;lon;timestamp;pressure;altitude;pressure_sealevel;temperature;humidity
34979;BME280;21185;50.978;13.720;2023-07-30T00:03:30;97698.66;;;19.84;63.91
34979;BME280;21185;50.978;13.720;2023-07-30T00:08:32;97691.00;;;19.82;63.91
34979;BME280;21185;50.978;13.720;2023-07-30T00:13:34;97697.53;;;19.80;63.89
34979;BME280;21185;50.978;13.720;2023-07-30T00:18:35;97697.53;;;19.80;63.85
34979;BME280;21185;50.978;13.720;2023-07-30T00:23:37;97689.88;;;19.78;63.63
34979;BME280;21185;50.978;13.720;2023-07-30T00:28:39;97691.13;;;19.76;63.63
34979;BME280;21185;50.978;13.720;2023-07-30T00:33:41;97690.34;;;19.75;63.92
34979;BME280;21185;50.978;13.720;2023-07-30T00:38:42;97694.47;;;19.71;64.13
34979;BME280;21185;50.978;13.720;2023-07-30T00:43:44;97691.28;;;19.69;64.17
34979;BME280;21185;50.978;13.720;2023-07-30T00:48:46;97692.06;;;19.69;64.15
34979;BME280;21185;50.978;13.720;2023-07-30T00:53:50;97683.13;;;19.70;64.10
34979;BME280;21185;50.978;13.720;2023-07-30T00:58:51;97676.28;;;19.69;64.09
34979;BME280;21185;50.978;13.720;2023-07-30T01:03:54;97671.00;;;19.69;64.08
34979;BME280;21185;50.978;13.720;2023-07-30T01:08:56;97666.78;;;19.68;64.46
34979;BME280;21185;50.978;13.720;2023-07-30T01:13:57;97668.38;;;19.69;64.44
34979;BME280;21185;50.978;13.720;2023-07-30T01:19:00;97666.53;;;19.70;64.26
34979;BME280;21185;50.978;13.720;2023-07-30T01:24:05;97678.09;;;19.69;64.37
34979;BME280;21185;50.978;13.720;2023-07-30T01:29:09;97693.34;;;19.67;64.57
34979;BME280;21185;50.978;13.720;2023-07-30T01:34:12;97687.75;;;19.63;64.49
34979;BME280;21185;50.978;13.720;2023-07-30T01:39:14;97692.22;;;19.63;64.51
34979;BME280;21185;50.978;13.720;2023-07-30T01:44:17;97696.44;;;19.64;64.84
34979;BME280;21185;50.978;13.720;2023-07-30T01:49:19;97699.41;;;19.67;64.91
34979;BME280;21185;50.978;13.720;2023-07-30T01:54:21;97700.53;;;19.71;65.05
34979;BME280;21185;50.978;13.720;2023-07-30T01:59:22;97709.78;;;19.74;65.09
34979;BME280;21185;50.978;13.720;2023-07-30T02:04:24;97703.50;;;19.75;65.01
34979;BME280;21185;50.978;13.720;2023-07-30T02:09:26;97695.38;;;19.77;65.13
34979;BME280;21185;50.978;13.720;2023-07-30T02:14:28;97697.28;;;19.81;65.03
34979;BME280;21185;50.978;13.720;2023-07-30T02:19:34;97689.50;;;19.86;64.90
34979;BME280;21185;50.978;13.720;2023-07-30T02:24:36;97684.56;;;19.90;64.84
34979;BME280;21185;50.978;13.720;2023-07-30T02:29:37;97685.13;;;19.92;64.87
34979;BME280;21185;50.978;13.720;2023-07-30T02:34:39;97695.97;;;19.95;64.94
34979;BME280;21185;50.978;13.720;2023-07-30T02:39:41;97710.16;;;19.94;65.05
34979;BME280;21185;50.978;13.720;2023-07-30T02:44:43;97704.91;;;19.94;64.77
34979;BME280;21185;50.978;13.720;2023-07-30T02:49:47;97708.09;;;19.96;65.19
34979;BME280;21185;50.978;13.720;2023-07-30T02:54:49;97706.50;;;19.95;65.18
34979;BME280;21185;50.978;13.720;2023-07-30T02:59:50;97708.34;;;19.95;65.15
34979;BME280;21185;50.978;13.720;2023-07-30T03:04:52;97712.56;;;19.96;64.97
34979;BME280;21185;50.978;13.720;2023-07-30T03:09:58;97713.38;;;19.96;64.74
34979;BME280;21185;50.978;13.720;2023-07-30T03:15:00;97710.75;;;19.96;65.01
34979;BME280;21185;50.978;13.720;2023-07-30T03:20:02;97714.41;;;19.95;65.00
34979;BME280;21185;50.978;13.720;2023-07-30T03:25:04;97709.13;;;19.95;65.03
34979;BME280;21185;50.978;13.720;2023-07-30T03:30:07;97694.94;;;19.96;65.03
34979;BME280;21185;50.978;13.720;2023-07-30T03:35:08;97706.03;;;19.98;65.10
34979;BME280;21185;50.978;13.720;2023-07-30T03:40:10;97702.38;;;19.99;65.10
34979;BME280;21185;50.978;13.720;2023-07-30T03:45:12;97690.00;;;20.00;65.08
34979;BME280;21185;50.978;13.720;2023-07-30T03:50:17;97700.28;;;20.01;65.09
34979;BME280;21185;50.978;13.720;2023-07-30T03:55:19;97707.97;;;20.03;64.83
34979;BME280;21185;50.978;13.720;2023-07-30T04:00:20;97709.56;;;20.04;65.29
34979;BME280;21185;50.978;13.720;2023-07-30T04:05:24;97711.97;;;20.05;65.09
34979;BME280;21185;50.978;13.720;2023-07-30T04:10:26;97703.03;;;20.07;65.11
34979;BME280;21185;50.978;13.720;2023-07-30T04:15:28;97712.53;;;20.08;64.99
34979;BME280;21185;50.978;13.720;2023-07-30T04:20:30;97723.63;;;20.10;65.23
34979;BME280;21185;50.978;13.720;2023-07-30T04:25:31;97727.63;;;20.12;65.33
34979;BME280;21185;50.978;13.720;2023-07-30T04:30:34;97726.03;;;20.11;65.35
34979;BME280;21185;50.978;13.720;2023-07-30T04:35:36;97726.50;;;20.08;65.43
34979;BME280;21185;50.978;13.720;2023-07-30T04:40:39;97727.19;;;20.03;65.15
34979;BME280;21185;50.978;13.720;2023-07-30T04:45:42;97721.38;;;20.01;65.36
34979;BME280;21185;50.978;13.720;2023-07-30T04:50:44;97722.41;;;20.00;65.36
34979;BME280;21185;50.978;13.720;2023-07-30T04:55:45;97721.38;;;20.01;65.23
34979;BME280;21185;50.978;13.720;2023-07-30T05:00:47;97714.69;;;20.11;65.13
34979;BME280;21185;50.978;13.720;2023-07-30T05:05:50;97719.56;;;20.19;65.34
34979;BME280;21185;50.978;13.720;2023-07-30T05:10:52;97712.00;;;20.22;65.44
34979;BME280;21185;50.978;13.720;2023-07-30T05:15:54;97715.84;;;20.31;65.40
34979;BME280;21185;50.978;13.720;2023-07-30T05:20:55;97717.88;;;20.41;65.34
34979;BME280;21185;50.978;13.720;2023-07-30T05:26:00;97719.63;;;20.52;65.04
34979;BME280;21185;50.978;13.720;2023-07-30T05:31:02;97730.09;;;20.64;65.13
34979;BME280;21185;50.978;13.720;2023-07-30T05:36:04;97729.16;;;20.70;65.28
34979;BME280;21185;50.978;13.720;2023-07-30T05:41:07;97736.09;;;20.76;65.19
34979;BME280;21185;50.978;13.720;2023-07-30T05:46:09;97737.22;;;20.80;65.35
34979;BME280;21185;50.978;13.720;2023-07-30T05:51:11;97744.84;;;20.82;65.83
34979;BME280;21185;50.978;13.720;2023-07-30T05:56:13;97733.25;;;20.83;65.95
34979;BME280;21185;50.978;13.720;2023-07-30T06:01:15;97739.66;;;20.87;66.35
34979;BME280;21185;50.978;13.720;2023-07-30T06:06:17;97737.88;;;20.92;67.04
34979;BME280;21185;50.978;13.720;2023-07-30T06:11:21;97738.28;;;21.01;67.06
34979;BME280;21185;50.978;13.720;2023-07-30T06:16:23;97746.03;;;21.08;67.75
34979;BME280;21185;50.978;13.720;2023-07-30T06:21:25;97750.09;;;21.15;67.53
34979;BME280;21185;50.978;13.720;2023-07-30T06:26:27;97754.63;;;21.20;67.86
34979;BME280;21185;50.978;13.720;2023-07-30T06:31:29;97760.56;;;21.27;67.83
34979;BME280;21185;50.978;13.720;2023-07-30T06:36:31;97766.66;;;21.27;68.22
34979;BME280;21185;50.978;13.720;2023-07-30T06:41:32;97767.44;;;21.28;68.55
34979;BME280;21185;50.978;13.720;2023-07-30T06:46:35;97775.94;;;21.30;68.60
34979;BME280;21185;50.978;13.720;2023-07-30T06:51:36;97772.25;;;21.31;68.74
34979;BME280;21185;50.978;13.720;2023-07-30T06:56:39;97779.25;;;21.42;68.94
34979;BME280;21185;50.978;13.720;2023-07-30T07:01:41;97774.91;;;21.53;69.28
34979;BME280;21185;50.978;13.720;2023-07-30T07:06:43;97782.41;;;21.61;68.98
34979;BME280;21185;50.978;13.720;2023-07-30T07:11:45;97784.06;;;21.67;69.05
34979;BME280;21185;50.978;13.720;2023-07-30T07:16:46;97779.91;;;21.71;69.04
34979;BME280;21185;50.978;13.720;2023-07-30T07:21:50;97791.31;;;21.77;68.82
34979;BME280;21185;50.978;13.720;2023-07-30T07:26:52;97786.34;;;21.80;68.92
34979;BME280;21185;50.978;13.720;2023-07-30T07:31:54;97796.97;;;21.85;68.33
34979;BME280;21185;50.978;13.720;2023-07-30T07:36:55;97802.31;;;21.90;68.26
34979;BME280;21185;50.978;13.720;2023-07-30T07:41:57;97798.75;;;22.02;67.70
34979;BME280;21185;50.978;13.720;2023-07-30T07:46:59;97794.34;;;22.07;67.41
34979;BME280;21185;50.978;13.720;2023-07-30T07:52:00;97802.09;;;22.14;67.32
34979;BME280;21185;50.978;13.720;2023-07-30T07:57:02;97806.09;;;22.16;67.37
34979;BME280;21185;50.978;13.720;2023-07-30T08:02:04;97790.84;;;22.23;67.00
34979;BME280;21185;50.978;13.720;2023-07-30T08:07:07;97797.72;;;22.24;66.95
34979;BME280;21185;50.978;13.720;2023-07-30T08:12:09;97785.66;;;22.34;67.14
34979;BME280;21185;50.978;13.720;2023-07-30T08:17:10;97785.19;;;22.42;66.83
34979;BME280;21185;50.978;13.720;2023-07-30T08:22:13;97791.34;;;22.47;66.66
34979;BME280;21185;50.978;13.720;2023-07-30T08:27:14;97784.78;;;22.55;66.55
34979;BME280;21185;50.978;13.720;2023-07-30T08:32:16;97787.25;;;22.93;66.15
34979;BME280;21185;50.978;13.720;2023-07-30T08:37:18;97780.44;;;23.03;65.94
34979;BME280;21185;50.978;13.720;2023-07-30T08:42:20;97783.56;;;22.94;65.93
34979;BME280;21185;50.978;13.720;2023-07-30T08:47:21;97791.06;;;22.76;65.73
34979;BME280;21185;50.978;13.720;2023-07-30T08:52:23;97791.00;;;22.71;65.96
34979;BME280;21185;50.978;13.720;2023-07-30T08:57:27;97787.03;;;22.68;66.15
34979;BME280;21185;50.978;13.720;2023-07-30T09:02:49;97784.88;;;22.65;66.11
34979;BME280;21185;50.978;13.720;2023-07-30T09:07:52;97789.63;;;22.63;65.90
34979;BME280;21185;50.978;13.720;2023-07-30T09:12:55;97780.44;;;22.71;65.94
34979;BME280;21185;50.978;13.720;2023-07-30T09:17:58;97779.06;;;22.95;65.50
34979;BME280;21185;50.978;13.720;2023-07-30T09:23:00;97784.97;;;23.07;65.17
34979;BME280;21185;50.978;13.720;2023-07-30T09:28:02;97779.81;;;23.27;64.91
34979;BME280;21185;50.978;13.720;2023-07-30T09:33:04;97784.09;;;23.34;64.05
34979;BME280;21185;50.978;13.720;2023-07-30T09:38:06;97778.56;;;23.40;64.00
34979;BME280;21185;50.978;13.720;2023-07-30T09:43:08;97784.69;;;23.46;64.00
34979;BME280;21185;50.978;13.720;2023-07-30T09:48:10;97784.81;;;23.66;63.99
34979;BME280;21185;50.978;13.720;2023-07-30T09:53:13;97784.56;;;23.68;62.62
34979;BME280;21185;50.978;13.720;2023-07-30T09:58:14;97779.50;;;23.61;63.09
34979;BME280;21185;50.978;13.720;2023-07-30T10:03:17;97783.22;;;23.60;63.26
34979;BME280;21185;50.978;13.720;2023-07-30T10:08:21;97785.84;;;23.60;62.78
34979;BME280;21185;50.978;13.720;2023-07-30T10:13:25;97788.56;;;23.70;62.63
34979;BME280;21185;50.978;13.720;2023-07-30T10:18:39;97776.09;;;23.71;62.23
34979;BME280;21185;50.978;13.720;2023-07-30T10:23:45;97782.69;;;23.63;62.23
34979;BME280;21185;50.978;13.720;2023-07-30T10:28:48;97778.38;;;23.52;62.31
34979;BME280;21185;50.978;13.720;2023-07-30T10:33:50;97782.84;;;23.46;61.99
34979;BME280;21185;50.978;13.720;2023-07-30T10:38:52;97777.53;;;23.46;61.76
34979;BME280;21185;50.978;13.720;2023-07-30T10:43:54;97780.53;;;23.55;61.92
34979;BME280;21185;50.978;13.720;2023-07-30T10:48:56;97790.38;;;23.65;61.34
34979;BME280;21185;50.978;13.720;2023-07-30T10:53:58;97772.19;;;23.83;60.84
34979;BME280;21185;50.978;13.720;2023-07-30T10:59:00;97778.09;;;24.06;60.72
34979;BME280;21185;50.978;13.720;2023-07-30T11:04:05;97781.28;;;24.13;60.55
34979;BME280;21185;50.978;13.720;2023-07-30T11:09:17;97777.28;;;24.05;59.68
34979;BME280;21185;50.978;13.720;2023-07-30T11:14:21;97767.50;;;24.16;59.05
34979;BME280;21185;50.978;13.720;2023-07-30T11:19:23;97758.03;;;24.35;57.68
34979;BME280;21185;50.978;13.720;2023-07-30T11:24:34;97751.16;;;24.44;56.94
34979;BME280;21185;50.978;13.720;2023-07-30T11:29:37;97744.25;;;24.48;56.65
34979;BME280;21185;50.978;13.720;2023-07-30T11:34:39;97737.09;;;24.54;56.47
34979;BME280;21185;50.978;13.720;2023-07-30T11:39:41;97733.13;;;24.77;56.35
34979;BME280;21185;50.978;13.720;2023-07-30T11:44:45;97746.38;;;24.82;54.17
34979;BME280;21185;50.978;13.720;2023-07-30T11:49:57;97737.38;;;24.63;54.75
34979;BME280;21185;50.978;13.720;2023-07-30T11:55:01;97731.53;;;24.66;54.60
34979;BME280;21185;50.978;13.720;2023-07-30T12:00:05;97725.69;;;24.89;53.67
34979;BME280;21185;50.978;13.720;2023-07-30T12:05:12;97720.09;;;25.11;53.66
34979;BME280;21185;50.978;13.720;2023-07-30T12:10:14;97717.97;;;25.18;53.25
34979;BME280;21185;50.978;13.720;2023-07-30T12:15:18;97717.97;;;25.18;51.59
34979;BME280;21185;50.978;13.720;2023-07-30T12:20:26;97710.00;;;25.18;51.18
34979;BME280;21185;50.978;13.720;2023-07-30T12:25:28;97700.72;;;25.15;50.60
34979;BME280;21185;50.978;13.720;2023-07-30T12:30:30;97694.63;;;25.05;50.43
34979;BME280;21185;50.978;13.720;2023-07-30T12:35:32;97686.16;;;24.98;48.70
34979;BME280;21185;50.978;13.720;2023-07-30T12:40:35;97688.78;;;24.93;46.53
34979;BME280;21185;50.978;13.720;2023-07-30T12:45:36;97697.56;;;24.83;47.05
34979;BME280;21185;50.978;13.720;2023-07-30T12:50:39;97702.34;;;24.76;47.36
34979;BME280;21185;50.978;13.720;2023-07-30T12:55:41;97710.56;;;24.64;46.07
34979;BME280;21185;50.978;13.720;2023-07-30T13:00:43;97715.34;;;24.57;45.70
34979;BME280;21185;50.978;13.720;2023-07-30T13:05:45;97709.00;;;24.58;45.63
34979;BME280;21185;50.978;13.720;2023-07-30T13:10:47;97709.50;;;24.65;45.88
34979;BME280;21185;50.978;13.720;2023-07-30T13:15:49;97708.97;;;24.68;45.88
34979;BME280;21185;50.978;13.720;2023-07-30T13:20:51;97707.38;;;24.82;46.15
34979;BME280;21185;50.978;13.720;2023-07-30T13:25:53;97702.88;;;24.98;46.44
34979;BME280;21185;50.978;13.720;2023-07-30T13:30:55;97691.97;;;25.10;47.17
34979;BME280;21185;50.978;13.720;2023-07-30T13:35:58;97681.06;;;25.11;46.59
34979;BME280;21185;50.978;13.720;2023-07-30T13:41:01;97685.84;;;25.14;45.78
34979;BME280;21185;50.978;13.720;2023-07-30T13:46:02;97687.44;;;25.15;46.04
34979;BME280;21185;50.978;13.720;2023-07-30T13:51:04;97683.19;;;25.14;46.32
34979;BME280;21185;50.978;13.720;2023-07-30T13:56:06;97682.13;;;25.15;46.91
34979;BME280;21185;50.978;13.720;2023-07-30T14:01:08;97689.03;;;25.11;46.95
34979;BME280;21185;50.978;13.720;2023-07-30T14:06:11;97693.56;;;25.06;47.49
34979;BME280;21185;50.978;13.720;2023-07-30T14:11:13;97689.59;;;25.03;47.73
34979;BME280;21185;50.978;13.720;2023-07-30T14:16:15;97695.63;;;25.24;47.86
34979;BME280;21185;50.978;13.720;2023-07-30T14:21:17;97699.31;;;25.38;47.31
34979;BME280;21185;50.978;13.720;2023-07-30T14:26:18;97699.34;;;25.28;47.38
34979;BME280;21185;50.978;13.720;2023-07-30T14:31:20;97700.72;;;25.10;47.29
34979;BME280;21185;50.978;13.720;2023-07-30T14:36:22;97693.03;;;24.94;47.50
34979;BME280;21185;50.978;13.720;2023-07-30T14:41:23;97699.69;;;24.81;47.73
34979;BME280;21185;50.978;13.720;2023-07-30T14:46:25;97703.94;;;24.72;48.00
34979;BME280;21185;50.978;13.720;2023-07-30T14:51:27;97698.66;;;24.62;48.08
34979;BME280;21185;50.978;13.720;2023-07-30T14:56:29;97700.22;;;24.52;48.24
34979;BME280;21185;50.978;13.720;2023-07-30T15:01:31;97704.75;;;24.47;48.21
34979;BME280;21185;50.978;13.720;2023-07-30T15:06:33;97704.22;;;24.45;48.12
34979;BME280;21185;50.978;13.720;2023-07-30T15:11:35;97747.97;;;24.42;48.47
34979;BME280;21185;50.978;13.720;2023-07-30T15:16:38;97775.44;;;24.06;51.88
34979;BME280;21185;50.978;13.720;2023-07-30T15:21:40;97795.91;;;23.58;54.14
34979;BME280;21185;50.978;13.720;2023-07-30T15:26:42;97806.84;;;23.30;55.83
34979;BME280;21185;50.978;13.720;2023-07-30T15:31:44;97817.88;;;23.16;56.53
34979;BME280;21185;50.978;13.720;2023-07-30T15:36:46;97813.88;;;23.14;56.69
34979;BME280;21185;50.978;13.720;2023-07-30T15:41:49;97801.94;;;23.11;57.12
34979;BME280;21185;50.978;13.720;2023-07-30T15:46:51;97808.25;;;23.05;57.74
34979;BME280;21185;50.978;13.720;2023-07-30T15:51:53;97800.78;;;22.97;57.93
34979;BME280;21185;50.978;13.720;2023-07-30T15:56:55;97807.88;;;22.91;58.08
34979;BME280;21185;50.978;13.720;2023-07-30T16:01:57;97801.75;;;22.86;58.65
34979;BME280;21185;50.978;13.720;2023-07-30T16:06:59;97803.59;;;22.85;59.41
34979;BME280;21185;50.978;13.720;2023-07-30T16:12:02;97810.25;;;22.88;59.72
34979;BME280;21185;50.978;13.720;2023-07-30T16:17:04;97805.19;;;22.86;59.78
34979;BME280;21185;50.978;13.720;2023-07-30T16:22:06;97805.19;;;22.86;59.69
34979;BME280;21185;50.978;13.720;2023-07-30T16:27:07;97815.78;;;22.86;59.55
34979;BME280;21185;50.978;13.720;2023-07-30T16:32:09;97819.22;;;22.87;59.52
34979;BME280;21185;50.978;13.720;2023-07-30T16:37:11;97818.63;;;22.80;59.88
34979;BME280;21185;50.978;13.720;2023-07-30T16:42:19;97815.38;;;22.73;59.94
34979;BME280;21185;50.978;13.720;2023-07-30T16:47:21;97826.94;;;22.67;59.98
34979;BME280;21185;50.978;13.720;2023-07-30T16:52:23;97838.63;;;22.71;60.12
34979;BME280;21185;50.978;13.720;2023-07-30T16:57:25;97851.28;;;22.69;60.15
34979;BME280;21185;50.978;13.720;2023-07-30T17:02:27;97865.66;;;22.51;59.77
34979;BME280;21185;50.978;13.720;2023-07-30T17:07:29;97870.22;;;22.34;60.12
34979;BME280;21185;50.978;13.720;2023-07-30T17:12:31;97899.84;;;22.14;59.97
34979;BME280;21185;50.978;13.720;2023-07-30T17:17:33;97902.75;;;21.95;60.31
34979;BME280;21185;50.978;13.720;2023-07-30T17:22:35;97902.06;;;21.83;60.11
34979;BME280;21185;50.978;13.720;2023-07-30T17:27:37;97915.63;;;21.70;60.18
34979;BME280;21185;50.978;13.720;2023-07-30T17:32:39;97937.38;;;21.60;60.33
34979;BME280;21185;50.978;13.720;2023-07-30T17:37:40;97947.78;;;21.50;60.45
34979;BME280;21185;50.978;13.720;2023-07-30T17:42:42;97955.84;;;21.44;60.29
34979;BME280;21185;50.978;13.720;2023-07-30T17:47:44;97963.28;;;21.30;60.49
34979;BME280;21185;50.978;13.720;2023-07-30T17:52:46;97969.53;;;21.12;60.33
34979;BME280;21185;50.978;13.720;2023-07-30T17:57:48;97969.84;;;20.99;60.04
34979;BME280;21185;50.978;13.720;2023-07-30T18:02:50;97980.84;;;20.96;60.33
34979;BME280;21185;50.978;13.720;2023-07-30T18:07:52;97990.59;;;20.95;60.04
34979;BME280;21185;50.978;13.720;2023-07-30T18:12:54;97996.22;;;20.99;59.85
34979;BME280;21185;50.978;13.720;2023-07-30T18:17:55;97996.69;;;20.96;59.74
34979;BME280;21185;50.978;13.720;2023-07-30T18:22:57;97992.34;;;20.90;59.77
34979;BME280;21185;50.978;13.720;2023-07-30T18:27:59;98006.22;;;20.85;59.65
34979;BME280;21185;50.978;13.720;2023-07-30T18:33:01;98005.09;;;20.81;59.25
34979;BME280;21185;50.978;13.720;2023-07-30T18:38:03;98006.88;;;20.76;59.21
34979;BME280;21185;50.978;13.720;2023-07-30T18:43:05;98015.25;;;20.73;58.92
34979;BME280;21185;50.978;13.720;2023-07-30T18:48:07;98018.81;;;20.66;58.95
34979;BME280;21185;50.978;13.720;2023-07-30T18:53:09;98027.66;;;20.60;58.55
34979;BME280;21185;50.978;13.720;2023-07-30T18:58:11;98025.47;;;20.57;58.74
34979;BME280;21185;50.978;13.720;2023-07-30T19:03:13;98027.78;;;20.54;58.40
34979;BME280;21185;50.978;13.720;2023-07-30T19:08:14;98028.47;;;20.49;58.29
34979;BME280;21185;50.978;13.720;2023-07-30T19:13:16;98029.72;;;20.47;58.28
34979;BME280;21185;50.978;13.720;2023-07-30T19:18:18;98038.91;;;20.44;58.10
34979;BME280;21185;50.978;13.720;2023-07-30T19:23:20;98033.06;;;20.42;58.16
34979;BME280;21185;50.978;13.720;2023-07-30T19:28:22;98043.03;;;20.40;57.67
34979;BME280;21185;50.978;13.720;2023-07-30T19:33:25;98045.06;;;20.38;57.90
34979;BME280;21185;50.978;13.720;2023-07-30T19:38:26;98039.91;;;20.31;58.08
34979;BME280;21185;50.978;13.720;2023-07-30T19:43:29;98048.50;;;20.27;57.76
34979;BME280;21185;50.978;13.720;2023-07-30T19:48:31;98053.66;;;20.22;57.94
34979;BME280;21185;50.978;13.720;2023-07-30T19:53:33;98051.94;;;20.16;58.08
34979;BME280;21185;50.978;13.720;2023-07-30T19:58:36;98046.22;;;20.07;58.04
34979;BME280;21185;50.978;13.720;2023-07-30T20:03:38;98049.19;;;19.99;58.00
34979;BME280;21185;50.978;13.720;2023-07-30T20:08:40;98052.94;;;19.91;57.73
34979;BME280;21185;50.978;13.720;2023-07-30T20:13:41;98049.03;;;19.82;57.78
34979;BME280;21185;50.978;13.720;2023-07-30T20:18:43;98045.38;;;19.71;57.90
34979;BME280;21185;50.978;13.720;2023-07-30T20:23:45;98044.44;;;19.66;57.78
34979;BME280;21185;50.978;13.720;2023-07-30T20:28:49;98038.81;;;19.62;57.80
34979;BME280;21185;50.978;13.720;2023-07-30T20:33:51;98048.53;;;19.62;57.58
34979;BME280;21185;50.978;13.720;2023-07-30T20:38:53;98039.41;;;19.64;57.63
34979;BME280;21185;50.978;13.720;2023-07-30T20:43:55;98040.78;;;19.67;57.49
34979;BME280;21185;50.978;13.720;2023-07-30T20:48:58;98034.47;;;19.68;57.05
34979;BME280;21185;50.978;13.720;2023-07-30T20:53:59;98035.50;;;19.67;56.92
34979;BME280;21185;50.978;13.720;2023-07-30T20:59:02;98036.31;;;19.67;56.85
34979;BME280;21185;50.978;13.720;2023-07-30T21:04:04;98039.53;;;19.69;56.65
34979;BME280;21185;50.978;13.720;2023-07-30T21:09:05;98033.47;;;19.69;56.43
34979;BME280;21185;50.978;13.720;2023-07-30T21:14:07;98031.84;;;19.68;56.41
34979;BME280;21185;50.978;13.720;2023-07-30T21:19:09;98031.84;;;19.68;56.12
34979;BME280;21185;50.978;13.720;2023-07-30T21:24:10;98038.72;;;19.69;56.22
34979;BME280;21185;50.978;13.720;2023-07-30T21:29:12;98029.22;;;19.68;55.80
34979;BME280;21185;50.978;13.720;2023-07-30T21:34:14;98027.63;;;19.67;55.74
34979;BME280;21185;50.978;13.720;2023-07-30T21:39:16;98027.38;;;19.68;55.93
34979;BME280;21185;50.978;13.720;2023-07-30T21:44:17;98032.44;;;19.70;55.75
34979;BME280;21185;50.978;13.720;2023-07-30T21:49:19;98035.06;;;19.70;55.79
34979;BME280;21185;50.978;13.720;2023-07-30T21:54:21;98035.06;;;19.70;56.04
34979;BME280;21185;50.978;13.720;2023-07-30T21:59:22;98037.47;;;19.71;55.78
34979;BME280;21185;50.978;13.720;2023-07-30T22:04:25;98032.19;;;19.71;55.78
34979;BME280;21185;50.978;13.720;2023-07-30T22:09:26;98030.38;;;19.72;56.04
34979;BME280;21185;50.978;13.720;2023-07-30T22:14:28;98029.56;;;19.71;55.87
34979;BME280;21185;50.978;13.720;2023-07-30T22:19:30;98023.50;;;19.71;55.71
34979;BME280;21185;50.978;13.720;2023-07-30T22:24:32;98029.22;;;19.68;55.54
34979;BME280;21185;50.978;13.720;2023-07-30T22:29:34;98024.84;;;19.62;55.22
34979;BME280;21185;50.978;13.720;2023-07-30T22:34:35;98030.56;;;19.59;55.41
34979;BME280;21185;50.978;13.720;2023-07-30T22:39:37;98026.78;;;19.55;55.35
34979;BME280;21185;50.978;13.720;2023-07-30T22:44:39;98024.59;;;19.52;55.47
34979;BME280;21185;50.978;13.720;2023-07-30T22:49:41;98041.03;;;19.47;55.08
34979;BME280;21185;50.978;13.720;2023-07-30T22:54:44;98044.91;;;19.45;55.40
34979;BME280;21185;50.978;13.720;2023-07-30T22:59:48;98040.69;;;19.44;55.17
34979;BME280;21185;50.978;13.720;2023-07-30T23:04:49;98038.28;;;19.42;55.35
34979;BME280;21185;50.978;13.720;2023-07-30T23:09:51;98031.63;;;19.39;55.19
34979;BME280;21185;50.978;13.720;2023-07-30T23:14:53;98020.53;;;19.37;55.36
34979;BME280;21185;50.978;13.720;2023-07-30T23:19:55;98028.06;;;19.34;55.65
34979;BME280;21185;50.978;13.720;2023-07-30T23:24:56;98022.44;;;19.30;55.28
34979;BME280;21185;50.978;13.720;2023-07-30T23:29:58;98024.72;;;19.27;55.31
34979;BME280;21185;50.978;13.720;2023-07-30T23:35:00;98011.00;;;19.25;55.34
34979;BME280;21185;50.978;13.720;2023-07-30T23:40:02;98014.06;;;19.22;55.38
34979;BME280;21185;50.978;13.720;2023-07-30T23:50:38;98012.69;;;19.19;55.50
34979;BME280;21185;50.978;13.720;2023-07-30T23:55:53;98011.88;;;19.19;55.45
